sensor_id;sensor_type;location;lat;lon;timestamp;temperature;humidity
4739;DHT22;2383;48.632;10.156;2023-03-14T00:01:46;7.70;99.90
4739;DHT22;2383;48.632;10.156;2023-03-14T00:05:48;7.00;99.90
4739;DHT22;2383;48.632;10.156;2023-03-14T00:09:50;6.90;99.90
4739;DHT22;2383;48.632;10.156;2023-03-14T00:13:52;6.40;99.90
4739;DHT22;2383;48.632;10.156;2023-03-14T00:17:54;6.40;99.90
4739;DHT22;2383;48.632;10.156;2023-03-14T00:21:56;6.20;99.90
4739;DHT22;2383;48.632;10.156;2023-03-14T00:26:02;6.10;99.90
4739;DHT22;2383;48.632;10.156;2023-03-14T00:30:06;6.20;99.90
4739;DHT22;2383;48.632;10.156;2023-03-14T00:34:09;6.70;99.90
4739;DHT22;2383;48.632;10.156;2023-03-14T00:38:14;6.50;99.90
4739;DHT22;2383;48.632;10.156;2023-03-14T00:42:23;6.70;99.90
4739;DHT22;2383;48.632;10.156;2023-03-14T00:46:25;7.20;99.90
4739;DHT22;2383;48.632;10.156;2023-03-14T00:50:27;7.20;99.90
4739;DHT22;2383;48.632;10.156;2023-03-14T00:54:29;6.60;99.90
4739;DHT22;2383;48.632;10.156;2023-03-14T00:58:32;6.50;99.90
4739;DHT22;2383;48.632;10.156;2023-03-14T01:02:36;6.80;99.90
4739;DHT22;2383;48.632;10.156;2023-03-14T01:06:39;7.00;99.90
4739;DHT22;2383;48.632;10.156;2023-03-14T01:10:41;6.80;99.90
4739;DHT22;2383;48.632;10.156;2023-03-14T01:14:42;6.80;99.90
4739;DHT22;2383;48.632;10.156;2023-03-14T01:18:45;6.50;99.90
4739;DHT22;2383;48.632;10.156;2023-03-14T01:22:47;6.50;99.90
4739;DHT22;2383;48.632;10.156;2023-03-14T01:26:49;6.30;99.90
4739;DHT22;2383;48.632;10.156;2023-03-14T01:30:51;6.60;99.90
4739;DHT22;2383;48.632;10.156;2023-03-14T01:34:54;6.60;99.90
4739;DHT22;2383;48.632;10.156;2023-03-14T01:38:56;6.30;99.90
4739;DHT22;2383;48.632;10.156;2023-03-14T01:43:12;5.90;99.90
4739;DHT22;2383;48.632;10.156;2023-03-14T01:47:14;5.90;99.90
4739;DHT22;2383;48.632;10.156;2023-03-14T01:51:21;6.20;99.90
4739;DHT22;2383;48.632;10.156;2023-03-14T01:55:25;6.40;99.90
4739;DHT22;2383;48.632;10.156;2023-03-14T01:59:29;6.20;99.90
4739;DHT22;2383;48.632;10.156;2023-03-14T02:03:37;6.30;99.90
4739;DHT22;2383;48.632;10.156;2023-03-14T02:07:52;6.00;99.90
4739;DHT22;2383;48.632;10.156;2023-03-14T02:11:59;6.00;99.90
4739;DHT22;2383;48.632;10.156;2023-03-14T02:16:27;6.30;99.90
4739;DHT22;2383;48.632;10.156;2023-03-14T02:21:10;6.50;99.90
4739;DHT22;2383;48.632;10.156;2023-03-14T02:25:21;6.50;99.90
4739;DHT22;2383;48.632;10.156;2023-03-14T02:29:27;6.40;99.90
4739;DHT22;2383;48.632;10.156;2023-03-14T02:33:30;6.50;99.90
4739;DHT22;2383;48.632;10.156;2023-03-14T02:37:38;6.10;99.90
4739;DHT22;2383;48.632;10.156;2023-03-14T02:41:43;6.20;99.90
4739;DHT22;2383;48.632;10.156;2023-03-14T02:45:48;6.30;99.90
4739;DHT22;2383;48.632;10.156;2023-03-14T02:50:03;5.90;99.90
4739;DHT22;2383;48.632;10.156;2023-03-14T02:54:05;6.00;99.90
4739;DHT22;2383;48.632;10.156;2023-03-14T02:58:07;6.40;99.90
4739;DHT22;2383;48.632;10.156;2023-03-14T03:02:10;6.50;99.90
4739;DHT22;2383;48.632;10.156;2023-03-14T03:06:12;6.80;99.90
4739;DHT22;2383;48.632;10.156;2023-03-14T03:10:14;6.40;99.90
4739;DHT22;2383;48.632;10.156;2023-03-14T03:14:16;6.30;99.90
4739;DHT22;2383;48.632;10.156;2023-03-14T03:18:18;6.40;99.90
4739;DHT22;2383;48.632;10.156;2023-03-14T03:22:20;6.20;99.90
4739;DHT22;2383;48.632;10.156;2023-03-14T03:26:22;6.30;99.90
4739;DHT22;2383;48.632;10.156;2023-03-14T03:30:23;6.70;99.90
4739;DHT22;2383;48.632;10.156;2023-03-14T03:34:27;6.50;99.90
4739;DHT22;2383;48.632;10.156;2023-03-14T03:38:30;6.60;99.90
4739;DHT22;2383;48.632;10.156;2023-03-14T03:42:35;6.80;99.90
4739;DHT22;2383;48.632;10.156;2023-03-14T03:46:37;7.00;99.90
4739;DHT22;2383;48.632;10.156;2023-03-14T03:50:47;6.90;99.90
4739;DHT22;2383;48.632;10.156;2023-03-14T03:54:53;6.60;99.90
4739;DHT22;2383;48.632;10.156;2023-03-14T03:58:55;7.20;99.90
4739;DHT22;2383;48.632;10.156;2023-03-14T04:02:58;7.30;99.90
4739;DHT22;2383;48.632;10.156;2023-03-14T04:07:01;7.00;99.90
4739;DHT22;2383;48.632;10.156;2023-03-14T04:11:04;6.90;99.90
4739;DHT22;2383;48.632;10.156;2023-03-14T04:15:24;6.80;99.90
4739;DHT22;2383;48.632;10.156;2023-03-14T04:19:26;6.90;99.90
4739;DHT22;2383;48.632;10.156;2023-03-14T04:23:30;6.70;99.90
4739;DHT22;2383;48.632;10.156;2023-03-14T04:27:32;6.90;99.90
4739;DHT22;2383;48.632;10.156;2023-03-14T04:31:36;6.80;99.90
4739;DHT22;2383;48.632;10.156;2023-03-14T04:35:38;6.50;99.90
4739;DHT22;2383;48.632;10.156;2023-03-14T04:39:43;6.60;99.90
4739;DHT22;2383;48.632;10.156;2023-03-14T04:43:59;6.50;99.90
4739;DHT22;2383;48.632;10.156;2023-03-14T04:48:02;6.60;99.90
4739;DHT22;2383;48.632;10.156;2023-03-14T04:52:05;6.70;99.90
4739;DHT22;2383;48.632;10.156;2023-03-14T04:56:10;6.80;99.90
4739;DHT22;2383;48.632;10.156;2023-03-14T05:00:17;6.70;99.90
4739;DHT22;2383;48.632;10.156;2023-03-14T05:04:57;6.90;99.90
4739;DHT22;2383;48.632;10.156;2023-03-14T05:09:13;6.50;99.90
4739;DHT22;2383;48.632;10.156;2023-03-14T05:13:39;6.80;99.90
4739;DHT22;2383;48.632;10.156;2023-03-14T05:17:59;7.00;99.90
4739;DHT22;2383;48.632;10.156;2023-03-14T05:22:20;6.30;99.90
4739;DHT22;2383;48.632;10.156;2023-03-14T05:26:23;6.30;99.90
4739;DHT22;2383;48.632;10.156;2023-03-14T05:30:48;6.60;99.90
4739;DHT22;2383;48.632;10.156;2023-03-14T05:34:53;6.60;99.90
4739;DHT22;2383;48.632;10.156;2023-03-14T05:39:04;6.60;99.90
4739;DHT22;2383;48.632;10.156;2023-03-14T05:43:32;6.60;99.90
4739;DHT22;2383;48.632;10.156;2023-03-14T05:47:45;6.70;99.90
4739;DHT22;2383;48.632;10.156;2023-03-14T05:52:05;6.70;99.90
4739;DHT22;2383;48.632;10.156;2023-03-14T05:56:32;6.80;99.90
4739;DHT22;2383;48.632;10.156;2023-03-14T06:01:03;6.80;99.90
4739;DHT22;2383;48.632;10.156;2023-03-14T06:05:23;7.00;99.90
4739;DHT22;2383;48.632;10.156;2023-03-14T06:09:31;7.00;99.90
4739;DHT22;2383;48.632;10.156;2023-03-14T06:13:35;6.60;99.90
4739;DHT22;2383;48.632;10.156;2023-03-14T06:17:37;6.60;99.90
4739;DHT22;2383;48.632;10.156;2023-03-14T06:21:46;7.00;99.90
4739;DHT22;2383;48.632;10.156;2023-03-14T06:25:48;7.30;99.90
4739;DHT22;2383;48.632;10.156;2023-03-14T06:29:51;7.20;99.90
4739;DHT22;2383;48.632;10.156;2023-03-14T06:33:53;7.20;99.90
4739;DHT22;2383;48.632;10.156;2023-03-14T06:37:57;7.40;99.90
4739;DHT22;2383;48.632;10.156;2023-03-14T06:41:59;7.50;99.90
4739;DHT22;2383;48.632;10.156;2023-03-14T06:46:01;7.70;99.90
4739;DHT22;2383;48.632;10.156;2023-03-14T06:50:07;7.60;99.90
4739;DHT22;2383;48.632;10.156;2023-03-14T06:54:10;7.40;99.90
4739;DHT22;2383;48.632;10.156;2023-03-14T06:58:12;7.70;99.90
4739;DHT22;2383;48.632;10.156;2023-03-14T07:02:17;7.70;99.90
4739;DHT22;2383;48.632;10.156;2023-03-14T07:06:22;7.60;99.90
4739;DHT22;2383;48.632;10.156;2023-03-14T07:10:24;7.70;99.90
4739;DHT22;2383;48.632;10.156;2023-03-14T07:14:26;7.50;99.90
4739;DHT22;2383;48.632;10.156;2023-03-14T07:18:28;7.20;99.90
4739;DHT22;2383;48.632;10.156;2023-03-14T07:22:31;6.80;99.90
4739;DHT22;2383;48.632;10.156;2023-03-14T07:26:33;6.70;99.90
4739;DHT22;2383;48.632;10.156;2023-03-14T07:30:35;6.90;99.90
4739;DHT22;2383;48.632;10.156;2023-03-14T07:34:43;6.90;99.90
4739;DHT22;2383;48.632;10.156;2023-03-14T07:38:45;6.90;99.90
4739;DHT22;2383;48.632;10.156;2023-03-14T07:43:05;7.00;99.90
4739;DHT22;2383;48.632;10.156;2023-03-14T07:47:21;6.70;99.90
4739;DHT22;2383;48.632;10.156;2023-03-14T07:51:23;6.90;99.90
4739;DHT22;2383;48.632;10.156;2023-03-14T07:55:25;7.00;99.90
4739;DHT22;2383;48.632;10.156;2023-03-14T07:59:28;6.60;99.90
4739;DHT22;2383;48.632;10.156;2023-03-14T08:03:29;6.60;99.90
4739;DHT22;2383;48.632;10.156;2023-03-14T08:07:31;6.60;99.90
4739;DHT22;2383;48.632;10.156;2023-03-14T08:11:33;6.80;99.90
4739;DHT22;2383;48.632;10.156;2023-03-14T08:15:35;7.00;99.90
4739;DHT22;2383;48.632;10.156;2023-03-14T08:19:38;6.90;99.90
4739;DHT22;2383;48.632;10.156;2023-03-14T08:23:40;6.80;99.90
4739;DHT22;2383;48.632;10.156;2023-03-14T08:27:42;7.00;99.90
4739;DHT22;2383;48.632;10.156;2023-03-14T08:31:44;7.00;99.90
4739;DHT22;2383;48.632;10.156;2023-03-14T08:35:46;6.50;99.90
4739;DHT22;2383;48.632;10.156;2023-03-14T08:39:48;6.30;99.90
4739;DHT22;2383;48.632;10.156;2023-03-14T08:43:49;6.80;99.90
4739;DHT22;2383;48.632;10.156;2023-03-14T08:47:51;6.90;99.90
4739;DHT22;2383;48.632;10.156;2023-03-14T08:51:53;7.00;99.90
4739;DHT22;2383;48.632;10.156;2023-03-14T08:55:55;7.30;99.90
4739;DHT22;2383;48.632;10.156;2023-03-14T08:59:57;7.40;99.90
4739;DHT22;2383;48.632;10.156;2023-03-14T09:03:59;7.30;99.90
4739;DHT22;2383;48.632;10.156;2023-03-14T09:08:01;7.20;99.90
4739;DHT22;2383;48.632;10.156;2023-03-14T09:12:03;7.20;99.90
4739;DHT22;2383;48.632;10.156;2023-03-14T09:16:07;7.30;99.90
4739;DHT22;2383;48.632;10.156;2023-03-14T09:20:09;7.80;99.90
4739;DHT22;2383;48.632;10.156;2023-03-14T09:24:11;8.20;99.90
4739;DHT22;2383;48.632;10.156;2023-03-14T09:28:13;7.50;99.90
4739;DHT22;2383;48.632;10.156;2023-03-14T09:32:15;7.70;99.90
4739;DHT22;2383;48.632;10.156;2023-03-14T09:36:17;8.60;99.90
4739;DHT22;2383;48.632;10.156;2023-03-14T09:40:19;8.70;99.90
4739;DHT22;2383;48.632;10.156;2023-03-14T09:44:30;8.50;99.90
4739;DHT22;2383;48.632;10.156;2023-03-14T09:48:34;8.50;99.00
4739;DHT22;2383;48.632;10.156;2023-03-14T09:52:38;8.50;99.90
4739;DHT22;2383;48.632;10.156;2023-03-14T09:56:41;8.90;99.90
4739;DHT22;2383;48.632;10.156;2023-03-14T10:00:43;8.60;99.90
4739;DHT22;2383;48.632;10.156;2023-03-14T10:04:47;8.50;99.90
4739;DHT22;2383;48.632;10.156;2023-03-14T10:08:49;8.30;99.90
4739;DHT22;2383;48.632;10.156;2023-03-14T10:12:56;8.20;99.90
4739;DHT22;2383;48.632;10.156;2023-03-14T10:17:06;8.90;99.60
4739;DHT22;2383;48.632;10.156;2023-03-14T10:21:29;8.80;99.80
4739;DHT22;2383;48.632;10.156;2023-03-14T10:25:36;8.90;98.70
4739;DHT22;2383;48.632;10.156;2023-03-14T10:29:55;9.40;98.60
4739;DHT22;2383;48.632;10.156;2023-03-14T10:34:02;9.00;99.10
4739;DHT22;2383;48.632;10.156;2023-03-14T10:38:05;8.60;99.30
4739;DHT22;2383;48.632;10.156;2023-03-14T10:46:24;9.30;98.50
4739;DHT22;2383;48.632;10.156;2023-03-14T10:51:05;8.70;97.60
4739;DHT22;2383;48.632;10.156;2023-03-14T10:55:11;8.40;97.70
4739;DHT22;2383;48.632;10.156;2023-03-14T10:59:15;8.00;97.10
4739;DHT22;2383;48.632;10.156;2023-03-14T11:03:17;8.10;96.80
4739;DHT22;2383;48.632;10.156;2023-03-14T11:11:35;8.40;97.10
4739;DHT22;2383;48.632;10.156;2023-03-14T11:20:17;8.50;97.20
4739;DHT22;2383;48.632;10.156;2023-03-14T11:28:49;7.90;97.10
4739;DHT22;2383;48.632;10.156;2023-03-14T11:37:30;8.20;96.50
4739;DHT22;2383;48.632;10.156;2023-03-14T11:41:40;8.20;97.30
4739;DHT22;2383;48.632;10.156;2023-03-14T11:45:43;8.50;96.80
4739;DHT22;2383;48.632;10.156;2023-03-14T11:50:15;8.90;97.40
4739;DHT22;2383;48.632;10.156;2023-03-14T11:58:29;8.40;97.30
4739;DHT22;2383;48.632;10.156;2023-03-14T12:03:09;9.30;96.80
4739;DHT22;2383;48.632;10.156;2023-03-14T12:07:23;8.70;97.10
4739;DHT22;2383;48.632;10.156;2023-03-14T12:15:38;8.90;98.10
4739;DHT22;2383;48.632;10.156;2023-03-14T12:19:41;8.90;99.90
4739;DHT22;2383;48.632;10.156;2023-03-14T12:23:51;7.80;99.20
4739;DHT22;2383;48.632;10.156;2023-03-14T12:36:04;7.10;99.90
4739;DHT22;2383;48.632;10.156;2023-03-14T12:40:13;6.50;99.90
4739;DHT22;2383;48.632;10.156;2023-03-14T12:48:30;7.70;99.90
4739;DHT22;2383;48.632;10.156;2023-03-14T12:57:13;7.70;99.90
4739;DHT22;2383;48.632;10.156;2023-03-14T13:01:18;7.20;99.90
4739;DHT22;2383;48.632;10.156;2023-03-14T13:05:24;7.30;99.90
4739;DHT22;2383;48.632;10.156;2023-03-14T13:13:29;6.80;99.90
4739;DHT22;2383;48.632;10.156;2023-03-14T13:17:33;6.70;99.90
4739;DHT22;2383;48.632;10.156;2023-03-14T13:21:38;7.10;99.90
4739;DHT22;2383;48.632;10.156;2023-03-14T13:25:40;6.60;99.90
4739;DHT22;2383;48.632;10.156;2023-03-14T13:29:42;6.90;99.90
4739;DHT22;2383;48.632;10.156;2023-03-14T13:33:44;6.60;99.90
4739;DHT22;2383;48.632;10.156;2023-03-14T13:37:47;6.60;99.90
4739;DHT22;2383;48.632;10.156;2023-03-14T13:42:04;7.50;99.90
4739;DHT22;2383;48.632;10.156;2023-03-14T13:50:19;6.20;99.90
4739;DHT22;2383;48.632;10.156;2023-03-14T13:54:22;6.00;99.90
4739;DHT22;2383;48.632;10.156;2023-03-14T13:58:29;5.70;99.90
4739;DHT22;2383;48.632;10.156;2023-03-14T14:02:32;5.70;99.30
4739;DHT22;2383;48.632;10.156;2023-03-14T14:06:38;5.30;99.70
4739;DHT22;2383;48.632;10.156;2023-03-14T14:10:47;5.20;98.90
4739;DHT22;2383;48.632;10.156;2023-03-14T14:15:19;4.70;97.50
4739;DHT22;2383;48.632;10.156;2023-03-14T14:19:22;4.60;96.70
4739;DHT22;2383;48.632;10.156;2023-03-14T14:23:26;5.00;97.40
4739;DHT22;2383;48.632;10.156;2023-03-14T14:27:37;5.20;95.30
4739;DHT22;2383;48.632;10.156;2023-03-14T14:31:44;4.90;94.50
4739;DHT22;2383;48.632;10.156;2023-03-14T14:35:56;4.30;93.70
4739;DHT22;2383;48.632;10.156;2023-03-14T14:40:10;3.70;94.20
4739;DHT22;2383;48.632;10.156;2023-03-14T14:48:28;3.90;93.40
4739;DHT22;2383;48.632;10.156;2023-03-14T14:52:50;4.20;93.10
4739;DHT22;2383;48.632;10.156;2023-03-14T14:57:02;4.30;92.70
4739;DHT22;2383;48.632;10.156;2023-03-14T15:01:07;5.00;93.00
4739;DHT22;2383;48.632;10.156;2023-03-14T15:05:22;5.30;91.80
4739;DHT22;2383;48.632;10.156;2023-03-14T15:09:24;4.60;90.30
4739;DHT22;2383;48.632;10.156;2023-03-14T15:13:26;4.80;90.40
4739;DHT22;2383;48.632;10.156;2023-03-14T15:17:28;5.20;90.20
4739;DHT22;2383;48.632;10.156;2023-03-14T15:21:31;4.50;88.70
4739;DHT22;2383;48.632;10.156;2023-03-14T15:25:33;4.50;87.90
4739;DHT22;2383;48.632;10.156;2023-03-14T15:29:54;4.50;88.20
4739;DHT22;2383;48.632;10.156;2023-03-14T15:33:56;4.70;87.60
4739;DHT22;2383;48.632;10.156;2023-03-14T15:37:58;5.10;87.20
4739;DHT22;2383;48.632;10.156;2023-03-14T15:42:00;4.70;87.90
4739;DHT22;2383;48.632;10.156;2023-03-14T15:46:02;4.20;87.80
4739;DHT22;2383;48.632;10.156;2023-03-14T15:50:05;4.50;87.90
4739;DHT22;2383;48.632;10.156;2023-03-14T15:54:11;3.90;86.00
4739;DHT22;2383;48.632;10.156;2023-03-14T15:58:17;3.60;88.00
4739;DHT22;2383;48.632;10.156;2023-03-14T16:02:22;4.40;86.30
4739;DHT22;2383;48.632;10.156;2023-03-14T16:06:24;4.80;85.30
4739;DHT22;2383;48.632;10.156;2023-03-14T16:10:26;4.30;84.60
4739;DHT22;2383;48.632;10.156;2023-03-14T16:14:31;4.40;84.90
4739;DHT22;2383;48.632;10.156;2023-03-14T16:18:35;4.80;84.80
4739;DHT22;2383;48.632;10.156;2023-03-14T16:22:38;5.30;83.70
4739;DHT22;2383;48.632;10.156;2023-03-14T16:26:40;5.40;84.50
4739;DHT22;2383;48.632;10.156;2023-03-14T16:30:41;5.00;83.00
4739;DHT22;2383;48.632;10.156;2023-03-14T16:34:43;4.70;82.30
4739;DHT22;2383;48.632;10.156;2023-03-14T16:38:45;4.30;84.70
4739;DHT22;2383;48.632;10.156;2023-03-14T16:42:47;4.60;85.10
4739;DHT22;2383;48.632;10.156;2023-03-14T16:47:09;4.20;84.50
4739;DHT22;2383;48.632;10.156;2023-03-14T16:51:13;3.90;86.10
4739;DHT22;2383;48.632;10.156;2023-03-14T16:55:17;4.40;84.70
4739;DHT22;2383;48.632;10.156;2023-03-14T16:59:19;4.20;85.80
4739;DHT22;2383;48.632;10.156;2023-03-14T17:03:21;4.90;85.30
4739;DHT22;2383;48.632;10.156;2023-03-14T17:07:23;5.40;84.90
4739;DHT22;2383;48.632;10.156;2023-03-14T17:11:25;5.00;83.30
4739;DHT22;2383;48.632;10.156;2023-03-14T17:15:27;4.80;84.60
4739;DHT22;2383;48.632;10.156;2023-03-14T17:19:28;5.20;85.50
4739;DHT22;2383;48.632;10.156;2023-03-14T17:23:34;4.70;84.40
4739;DHT22;2383;48.632;10.156;2023-03-14T17:27:36;5.40;85.30
4739;DHT22;2383;48.632;10.156;2023-03-14T17:31:38;5.40;84.20
4739;DHT22;2383;48.632;10.156;2023-03-14T17:35:42;5.70;84.20
4739;DHT22;2383;48.632;10.156;2023-03-14T17:39:44;5.90;85.60
4739;DHT22;2383;48.632;10.156;2023-03-14T17:43:46;5.90;85.00
4739;DHT22;2383;48.632;10.156;2023-03-14T17:47:48;5.80;84.00
4739;DHT22;2383;48.632;10.156;2023-03-14T17:51:50;5.70;85.10
4739;DHT22;2383;48.632;10.156;2023-03-14T17:55:51;5.90;83.90
4739;DHT22;2383;48.632;10.156;2023-03-14T17:59:53;6.00;85.70
4739;DHT22;2383;48.632;10.156;2023-03-14T18:03:55;6.20;86.00
4739;DHT22;2383;48.632;10.156;2023-03-14T18:07:59;6.00;86.40
4739;DHT22;2383;48.632;10.156;2023-03-14T18:12:01;6.00;86.40
4739;DHT22;2383;48.632;10.156;2023-03-14T18:16:12;6.20;87.30
4739;DHT22;2383;48.632;10.156;2023-03-14T18:20:15;6.00;88.00
4739;DHT22;2383;48.632;10.156;2023-03-14T18:24:17;6.20;88.10
4739;DHT22;2383;48.632;10.156;2023-03-14T18:28:19;6.10;89.00
4739;DHT22;2383;48.632;10.156;2023-03-14T18:32:22;6.10;86.80
4739;DHT22;2383;48.632;10.156;2023-03-14T18:36:24;6.10;88.50
4739;DHT22;2383;48.632;10.156;2023-03-14T18:40:27;6.40;88.00
4739;DHT22;2383;48.632;10.156;2023-03-14T18:44:29;5.60;89.80
4739;DHT22;2383;48.632;10.156;2023-03-14T18:48:31;5.00;91.90
4739;DHT22;2383;48.632;10.156;2023-03-14T18:52:33;4.50;93.40
4739;DHT22;2383;48.632;10.156;2023-03-14T18:56:36;4.70;93.30
4739;DHT22;2383;48.632;10.156;2023-03-14T19:00:39;4.60;93.60
4739;DHT22;2383;48.632;10.156;2023-03-14T19:04:41;4.90;93.20
4739;DHT22;2383;48.632;10.156;2023-03-14T19:08:44;5.00;93.50
4739;DHT22;2383;48.632;10.156;2023-03-14T19:12:46;5.10;93.90
4739;DHT22;2383;48.632;10.156;2023-03-14T19:16:48;5.30;93.70
4739;DHT22;2383;48.632;10.156;2023-03-14T19:21:08;5.30;92.60
4739;DHT22;2383;48.632;10.156;2023-03-14T19:25:10;5.50;92.80
4739;DHT22;2383;48.632;10.156;2023-03-14T19:29:12;5.20;93.40
4739;DHT22;2383;48.632;10.156;2023-03-14T19:33:15;5.20;92.90
4739;DHT22;2383;48.632;10.156;2023-03-14T19:37:17;4.20;95.20
4739;DHT22;2383;48.632;10.156;2023-03-14T19:41:20;2.80;97.50
4739;DHT22;2383;48.632;10.156;2023-03-14T19:45:23;2.70;98.20
4739;DHT22;2383;48.632;10.156;2023-03-14T19:49:26;2.80;97.50
4739;DHT22;2383;48.632;10.156;2023-03-14T19:53:28;3.00;97.40
4739;DHT22;2383;48.632;10.156;2023-03-14T19:57:30;3.60;96.80
4739;DHT22;2383;48.632;10.156;2023-03-14T20:01:32;3.70;96.20
4739;DHT22;2383;48.632;10.156;2023-03-14T20:05:37;3.90;96.80
4739;DHT22;2383;48.632;10.156;2023-03-14T20:09:40;3.80;96.30
4739;DHT22;2383;48.632;10.156;2023-03-14T20:13:42;4.00;95.50
4739;DHT22;2383;48.632;10.156;2023-03-14T20:17:48;3.90;95.30
4739;DHT22;2383;48.632;10.156;2023-03-14T20:21:51;3.70;95.80
4739;DHT22;2383;48.632;10.156;2023-03-14T20:25:58;4.00;95.30
4739;DHT22;2383;48.632;10.156;2023-03-14T20:30:00;3.80;96.60
4739;DHT22;2383;48.632;10.156;2023-03-14T20:34:08;4.10;95.80
4739;DHT22;2383;48.632;10.156;2023-03-14T20:38:10;4.20;95.20
4739;DHT22;2383;48.632;10.156;2023-03-14T20:42:12;4.40;94.80
4739;DHT22;2383;48.632;10.156;2023-03-14T20:46:14;4.40;95.00
4739;DHT22;2383;48.632;10.156;2023-03-14T20:50:18;4.40;94.50
4739;DHT22;2383;48.632;10.156;2023-03-14T20:54:20;4.40;95.40
4739;DHT22;2383;48.632;10.156;2023-03-14T20:58:23;4.50;94.30
4739;DHT22;2383;48.632;10.156;2023-03-14T21:02:25;4.80;94.40
4739;DHT22;2383;48.632;10.156;2023-03-14T21:06:26;4.40;93.70
4739;DHT22;2383;48.632;10.156;2023-03-14T21:10:29;4.40;94.50
4739;DHT22;2383;48.632;10.156;2023-03-14T21:14:31;4.70;94.70
4739;DHT22;2383;48.632;10.156;2023-03-14T21:18:32;4.60;94.70
4739;DHT22;2383;48.632;10.156;2023-03-14T21:22:34;4.40;94.90
4739;DHT22;2383;48.632;10.156;2023-03-14T21:26:36;4.50;94.80
4739;DHT22;2383;48.632;10.156;2023-03-14T21:30:38;4.60;94.90
4739;DHT22;2383;48.632;10.156;2023-03-14T21:34:40;4.40;94.50
4739;DHT22;2383;48.632;10.156;2023-03-14T21:38:42;4.40;95.00
4739;DHT22;2383;48.632;10.156;2023-03-14T21:42:43;4.40;94.90
4739;DHT22;2383;48.632;10.156;2023-03-14T21:46:46;4.40;95.00
4739;DHT22;2383;48.632;10.156;2023-03-14T21:50:48;4.30;95.00
4739;DHT22;2383;48.632;10.156;2023-03-14T21:54:50;4.30;94.50
4739;DHT22;2383;48.632;10.156;2023-03-14T21:58:53;3.30;94.50
4739;DHT22;2383;48.632;10.156;2023-03-14T22:02:56;3.80;95.00
4739;DHT22;2383;48.632;10.156;2023-03-14T22:07:15;4.20;95.10
4739;DHT22;2383;48.632;10.156;2023-03-14T22:11:22;4.20;94.20
4739;DHT22;2383;48.632;10.156;2023-03-14T22:15:24;4.30;94.80
4739;DHT22;2383;48.632;10.156;2023-03-14T22:19:26;4.20;94.60
4739;DHT22;2383;48.632;10.156;2023-03-14T22:23:28;4.70;94.50
4739;DHT22;2383;48.632;10.156;2023-03-14T22:27:30;4.60;94.20
4739;DHT22;2383;48.632;10.156;2023-03-14T22:31:32;4.50;95.00
4739;DHT22;2383;48.632;10.156;2023-03-14T22:35:34;4.80;94.90
4739;DHT22;2383;48.632;10.156;2023-03-14T22:39:36;4.60;94.90
4739;DHT22;2383;48.632;10.156;2023-03-14T22:43:37;4.30;95.10
4739;DHT22;2383;48.632;10.156;2023-03-14T22:47:39;3.70;96.20
4739;DHT22;2383;48.632;10.156;2023-03-14T22:51:41;3.60;96.30
4739;DHT22;2383;48.632;10.156;2023-03-14T22:55:43;3.80;97.00
4739;DHT22;2383;48.632;10.156;2023-03-14T22:59:45;4.10;95.90
4739;DHT22;2383;48.632;10.156;2023-03-14T23:03:47;3.80;96.70
4739;DHT22;2383;48.632;10.156;2023-03-14T23:07:49;4.00;96.30
4739;DHT22;2383;48.632;10.156;2023-03-14T23:11:51;4.10;96.30
4739;DHT22;2383;48.632;10.156;2023-03-14T23:15:52;4.50;96.00
4739;DHT22;2383;48.632;10.156;2023-03-14T23:19:54;4.60;96.20
4739;DHT22;2383;48.632;10.156;2023-03-14T23:23:56;4.30;96.60
4739;DHT22;2383;48.632;10.156;2023-03-14T23:27:58;4.30;96.90
4739;DHT22;2383;48.632;10.156;2023-03-14T23:32:00;4.50;96.70
4739;DHT22;2383;48.632;10.156;2023-03-14T23:36:05;4.40;96.70
4739;DHT22;2383;48.632;10.156;2023-03-14T23:40:07;4.00;96.70
4739;DHT22;2383;48.632;10.156;2023-03-14T23:44:11;4.40;96.70
4739;DHT22;2383;48.632;10.156;2023-03-14T23:48:15;4.40;96.90
4739;DHT22;2383;48.632;10.156;2023-03-14T23:52:17;4.30;96.50
4739;DHT22;2383;48.632;10.156;2023-03-14T23:56:19;4.60;96.60
